Time;durP1;ratioP1;P1;durP2;ratioP2;P2;SDS_P1;SDS_P2;PMS_P1;PMS_P2;Temp;Humidity;BMP_temperature;BMP_pressure;BME280_temperature;BME280_humidity;BME280_pressure;Samples;Min_cycle;Max_cycle;Signal;HPM_P1;HPM_P2
2023/09/11 00:02:08;;;;;;;6.80;2.30;;;;;;;14.60;100.00;99478.18;109665;1250;66460;-64
2023/09/11 00:04:34;;;;;;;3.80;2.50;;;;;;;14.61;100.00;99474.69;109654;1250;72352;-64
2023/09/11 00:07:01;;;;;;;2.90;2.30;;;;;;;14.61;100.00;99472.21;109639;1250;59867;-64
2023/09/11 00:09:28;;;;;;;7.70;2.80;;;;;;;14.60;100.00;99469.77;109659;1250;60212;-64
2023/09/11 00:11:54;;;;;;;3.10;2.70;;;;;;;14.60;100.00;99468.85;109707;1250;75117;-64
2023/09/11 00:14:21;;;;;;;6.10;2.40;;;;;;;14.59;100.00;99461.20;109655;1250;67927;-63
2023/09/11 00:16:48;;;;;;;3.50;2.20;;;;;;;14.58;100.00;99461.52;109629;1250;71185;-64
2023/09/11 00:19:14;;;;;;;8.60;2.40;;;;;;;14.56;100.00;99462.70;109644;1250;59818;-63
2023/09/11 00:21:40;;;;;;;3.60;2.50;;;;;;;14.53;100.00;99460.88;109659;1250;59836;-64
2023/09/11 00:24:07;;;;;;;2.70;2.40;;;;;;;14.51;100.00;99462.59;109614;1250;60313;-64
2023/09/11 00:26:34;;;;;;;3.90;2.30;;;;;;;14.48;100.00;99465.11;109752;1250;67664;-64
2023/09/11 00:29:01;;;;;;;2.60;2.00;;;;;;;14.46;100.00;99466.83;109657;1250;71120;-63
2023/09/11 00:31:27;;;;;;;6.00;2.60;;;;;;;14.43;100.00;99462.38;109616;1250;59797;-63
2023/09/11 00:33:54;;;;;;;4.40;2.40;;;;;;;14.42;100.00;99460.88;109732;1250;60418;-64
2023/09/11 00:36:21;;;;;;;3.90;2.40;;;;;;;14.44;100.00;99457.10;109686;1250;59795;-64
2023/09/11 00:38:50;;;;;;;4.60;2.50;;;;;;;14.47;100.00;99451.20;109676;1250;66354;-64
2023/09/11 00:41:16;;;;;;;2.90;2.60;;;;;;;14.49;100.00;99450.84;109492;1250;72580;-63
2023/09/11 00:43:43;;;;;;;3.10;2.40;;;;;;;14.51;100.00;99447.02;109597;1250;60247;-63
2023/09/11 00:46:10;;;;;;;4.90;2.40;;;;;;;14.52;100.00;99440.56;109677;1250;59711;-64
2023/09/11 00:48:36;;;;;;;3.40;2.80;;;;;;;14.49;100.00;99443.05;109561;1250;60416;-64
2023/09/11 00:51:03;;;;;;;3.00;2.50;;;;;;;14.46;100.00;99438.52;109467;1250;66643;-63
2023/09/11 00:53:30;;;;;;;5.30;2.50;;;;;;;14.42;100.00;99432.67;109668;1250;72667;-64
2023/09/11 00:55:56;;;;;;;4.70;2.20;;;;;;;14.39;100.00;99430.55;109602;1250;60215;-64
2023/09/11 00:58:24;;;;;;;3.40;2.50;;;;;;;14.40;100.00;99428.36;109571;1250;59704;-64
2023/09/11 01:00:50;;;;;;;4.80;2.30;;;;;;;14.39;100.00;99425.11;109483;1250;75156;-64
2023/09/11 01:03:17;;;;;;;4.20;2.20;;;;;;;14.38;100.00;99423.63;109481;1250;68019;-62
2023/09/11 01:05:44;;;;;;;3.70;2.30;;;;;;;14.37;100.00;99422.84;109572;1250;72662;-64
2023/09/11 01:08:11;;;;;;;5.70;2.60;;;;;;;14.34;100.00;99422.33;109668;1250;59782;-64
2023/09/11 01:10:37;;;;;;;5.10;2.10;;;;;;;14.32;100.00;99420.48;109519;1250;60601;-63
2023/09/11 01:13:04;;;;;;;6.70;3.20;;;;;;;14.30;100.00;99418.93;109601;1250;75355;-63
2023/09/11 01:15:34;;;;;;;4.00;2.70;;;;;;;14.28;100.00;99419.13;109675;1250;67732;-63
2023/09/11 01:18:19;;;;;;;4.20;3.00;;;;;;;14.28;100.00;99416.09;109386;1250;71339;-63
2023/09/11 01:21:00;;;;;;;4.80;2.40;;;;;;;14.30;100.00;99414.15;109441;1250;60130;-64
2023/09/11 01:23:59;;;;;;;3.00;2.40;;;;;;;14.30;100.00;99410.83;109589;1251;60396;-64
2023/09/11 01:26:53;;;;;;;5.90;2.90;;;;;;;14.29;100.00;99409.08;109660;1250;75254;-63
2023/09/11 01:29:26;;;;;;;3.70;2.70;;;;;;;14.26;100.00;99405.55;109743;1250;67769;-63
2023/09/11 01:31:53;;;;;;;3.50;2.40;;;;;;;14.26;100.00;99409.71;109532;1250;72450;-64
2023/09/11 01:34:20;;;;;;;3.80;2.60;;;;;;;14.27;100.00;99406.96;109616;1250;60204;-64
2023/09/11 01:36:46;;;;;;;4.20;2.70;;;;;;;14.26;100.00;99405.27;109562;1250;59674;-64
2023/09/11 01:39:13;;;;;;;5.50;2.80;;;;;;;14.26;100.00;99407.66;109642;1250;75344;-72
2023/09/11 01:41:40;;;;;;;3.70;2.60;;;;;;;14.24;100.00;99409.25;109526;1250;67851;-62
2023/09/11 01:44:42;;;;;;;3.20;2.20;;;;;;;14.20;100.00;99405.85;109616;1250;72427;-63
2023/09/11 01:47:10;;;;;;;4.60;2.80;;;;;;;14.17;100.00;99403.16;109555;1250;59774;-65
2023/09/11 01:49:37;;;;;;;4.30;2.50;;;;;;;14.18;100.00;99400.16;109470;1250;59795;-65
2023/09/11 01:52:04;;;;;;;5.60;2.40;;;;;;;14.16;100.00;99402.95;109531;1250;73817;-65
2023/09/11 01:54:30;;;;;;;3.90;3.00;;;;;;;14.13;100.00;99401.45;109531;1250;68094;-65
2023/09/11 01:56:57;;;;;;;4.30;2.90;;;;;;;14.11;100.00;99402.95;109508;1250;72684;-65
2023/09/11 01:59:23;;;;;;;3.50;2.60;;;;;;;14.12;100.00;99402.46;109560;1250;60035;-65
2023/09/11 02:01:50;;;;;;;3.50;2.60;;;;;;;14.14;100.00;99400.55;109690;1250;60992;-64
2023/09/11 02:04:16;;;;;;;4.30;2.50;;;;;;;14.14;100.00;99400.61;109546;1250;60282;-65
2023/09/11 02:06:43;;;;;;;5.70;2.90;;;;;;;14.13;100.00;99404.44;109573;1250;67745;-64
2023/09/11 02:09:10;;;;;;;4.80;2.60;;;;;;;14.13;100.00;99400.70;109682;1250;72691;-65
2023/09/11 02:11:36;;;;;;;3.30;2.70;;;;;;;14.14;100.00;99400.83;109574;1250;59772;-65
2023/09/11 02:14:03;;;;;;;2.80;2.40;;;;;;;14.13;100.00;99397.45;109673;1250;60133;-65
2023/09/11 02:16:29;;;;;;;4.20;2.30;;;;;;;14.12;100.00;99394.05;109506;1251;74193;-64
2023/09/11 02:18:56;;;;;;;3.30;2.70;;;;;;;14.13;100.00;99393.67;109641;1250;66437;-64
2023/09/11 02:21:23;;;;;;;3.00;2.60;;;;;;;14.11;100.00;99396.53;109713;1250;71244;-63
2023/09/11 02:23:49;;;;;;;5.40;2.50;;;;;;;14.08;100.00;99399.17;109628;1250;60166;-65
2023/09/11 02:26:16;;;;;;;4.10;2.50;;;;;;;14.08;100.00;99400.90;109676;1250;60046;-65
2023/09/11 02:28:42;;;;;;;3.50;2.70;;;;;;;14.07;100.00;99402.75;109663;1252;75483;-63
2023/09/11 02:31:09;;;;;;;6.70;2.70;;;;;;;14.06;100.00;99402.40;109614;1251;66638;-65
2023/09/11 02:33:36;;;;;;;5.70;2.90;;;;;;;14.03;100.00;99401.66;109554;1250;71993;-63
2023/09/11 02:36:03;;;;;;;3.20;2.90;;;;;;;14.00;100.00;99397.10;109612;1250;59892;-64
2023/09/11 02:38:31;;;;;;;3.50;2.40;;;;;;;13.95;100.00;99394.55;109638;1250;59688;-66
2023/09/11 02:40:58;;;;;;;2.90;2.60;;;;;;;13.89;100.00;99392.81;109458;1250;73831;-64
2023/09/11 02:43:36;;;;;;;5.70;2.70;;;;;;;13.82;100.00;99392.27;109622;1250;67938;-64
2023/09/11 02:46:02;;;;;;;2.90;2.30;;;;;;;13.75;100.00;99394.26;109657;1250;72585;-63
2023/09/11 02:48:31;;;;;;;5.40;2.80;;;;;;;13.70;100.00;99396.48;109515;1250;59746;-64
2023/09/11 02:50:58;;;;;;;3.60;2.80;;;;;;;13.67;100.00;99391.80;109523;1251;59843;-63
2023/09/11 02:53:24;;;;;;;3.30;2.40;;;;;;;13.66;100.00;99391.09;109608;1252;75214;-63
2023/09/11 02:55:51;;;;;;;4.40;2.90;;;;;;;13.66;100.00;99390.44;109634;1250;67747;-63
2023/09/11 02:58:18;;;;;;;3.00;2.60;;;;;;;13.66;100.00;99390.23;109633;1250;72444;-64
2023/09/11 03:00:44;;;;;;;4.10;2.70;;;;;;;13.63;100.00;99391.11;109522;1251;59721;-65
2023/09/11 03:03:11;;;;;;;3.70;2.60;;;;;;;13.57;100.00;99389.48;109670;1250;59631;-64
2023/09/11 03:05:37;;;;;;;4.10;3.10;;;;;;;13.51;100.00;99382.58;109698;1250;75257;-65
2023/09/11 03:08:06;;;;;;;5.00;2.70;;;;;;;13.46;100.00;99385.40;109650;1250;66753;-65
2023/09/11 03:10:33;;;;;;;3.20;2.60;;;;;;;13.42;100.00;99382.36;109602;1251;72529;-65
2023/09/11 03:12:59;;;;;;;3.30;2.70;;;;;;;13.39;100.00;99383.48;109549;1250;60482;-65
2023/09/11 03:15:27;;;;;;;3.50;2.60;;;;;;;13.38;100.00;99385.02;109490;1250;60218;-65
2023/09/11 03:17:53;;;;;;;5.10;3.00;;;;;;;13.35;100.00;99384.50;109564;1251;75168;-65
2023/09/11 03:20:20;;;;;;;5.30;2.40;;;;;;;13.32;100.00;99383.73;109514;1250;66458;-65
2023/09/11 03:22:47;;;;;;;5.10;3.10;;;;;;;13.34;100.00;99384.08;109545;1252;71141;-66
2023/09/11 03:25:14;;;;;;;4.50;3.10;;;;;;;13.38;100.00;99385.02;109489;1251;60116;-66
2023/09/11 03:27:41;;;;;;;4.00;2.90;;;;;;;13.38;100.00;99384.98;109552;1250;59784;-66
2023/09/11 03:30:08;;;;;;;4.20;2.70;;;;;;;13.38;100.00;99380.66;109644;1250;73773;-65
2023/09/11 03:32:34;;;;;;;4.50;3.30;;;;;;;13.37;100.00;99380.05;109633;1250;67811;-65
2023/09/11 03:35:01;;;;;;;5.80;3.00;;;;;;;13.36;100.00;99381.84;109436;1250;72420;-66
2023/09/11 03:37:29;;;;;;;3.80;2.30;;;;;;;13.34;100.00;99383.89;109661;1250;61768;-64
2023/09/11 03:39:57;;;;;;;5.10;3.20;;;;;;;13.33;100.00;99382.27;109512;1250;59868;-65
2023/09/11 03:42:23;;;;;;;3.40;2.90;;;;;;;13.31;100.00;99383.65;109550;1251;73900;-65
2023/09/11 03:44:50;;;;;;;4.00;2.60;;;;;;;13.29;100.00;99379.34;109605;1250;67661;-64
2023/09/11 03:47:17;;;;;;;4.30;2.80;;;;;;;13.26;100.00;99383.26;109534;1250;72126;-65
2023/09/11 03:49:43;;;;;;;4.40;2.60;;;;;;;13.22;100.00;99380.75;109589;1250;60192;-65
2023/09/11 03:52:10;;;;;;;6.00;3.00;;;;;;;13.18;100.00;99380.66;109556;1250;59818;-65
2023/09/11 03:54:37;;;;;;;3.90;2.60;;;;;;;13.15;100.00;99385.23;109543;1250;75250;-69
2023/09/11 03:57:03;;;;;;;4.70;2.60;;;;;;;13.11;100.00;99383.25;109569;1250;67163;-69
2023/09/11 03:59:30;;;;;;;7.60;2.70;;;;;;;13.06;100.00;99382.37;109652;1250;71156;-67
2023/09/11 04:01:57;;;;;;;5.70;4.30;;;;;;;13.04;100.00;99379.94;109441;1250;61282;-68
2023/09/11 04:04:23;;;;;;;7.80;3.40;;;;;;;13.04;100.00;99376.04;109495;1252;60160;-71
2023/09/11 04:06:50;;;;;;;4.80;2.60;;;;;;;13.07;100.00;99376.77;109585;1250;75517;-71
2023/09/11 04:09:16;;;;;;;3.60;2.70;;;;;;;13.13;100.00;99375.48;109585;1251;59846;-74
2023/09/11 04:11:43;;;;;;;5.00;3.10;;;;;;;13.20;100.00;99373.49;109590;1250;59780;-70
2023/09/11 04:14:09;;;;;;;4.00;3.10;;;;;;;13.28;100.00;99373.00;109606;1250;59746;-72
2023/09/11 04:16:36;;;;;;;5.20;3.00;;;;;;;13.38;100.00;99371.05;109553;1250;59725;-72
2023/09/11 04:19:03;;;;;;;8.20;3.60;;;;;;;13.49;100.00;99372.11;109612;1250;74015;-68
2023/09/11 04:21:33;;;;;;;3.90;3.20;;;;;;;13.64;100.00;99371.04;109540;1251;67643;-72
2023/09/11 04:23:59;;;;;;;5.80;3.30;;;;;;;13.83;100.00;99372.48;109604;1251;70712;-74
2023/09/11 04:26:27;;;;;;;5.30;3.30;;;;;;;14.06;100.00;99366.62;109627;1250;61943;-68
2023/09/11 04:28:57;;;;;;;5.30;3.20;;;;;;;14.35;100.00;99360.08;109475;1252;59776;-73
2023/09/11 04:31:23;;;;;;;3.40;3.00;;;;;;;14.64;100.00;99356.36;109644;1250;75410;-74
2023/09/11 04:33:50;;;;;;;5.20;3.30;;;;;;;14.89;100.00;99352.26;109591;1250;68246;-71
2023/09/11 04:36:17;;;;;;;4.10;3.50;;;;;;;15.15;100.00;99351.92;109584;1250;70824;-74
2023/09/11 04:38:44;;;;;;;4.80;3.50;;;;;;;15.38;100.00;99349.79;109404;1250;60270;-70
2023/09/11 04:41:11;;;;;;;7.70;4.00;;;;;;;15.62;100.00;99348.74;109538;1250;60131;-73
2023/09/11 04:43:38;;;;;;;4.60;3.30;;;;;;;15.87;100.00;99345.48;109539;1250;74486;-76
2023/09/11 04:46:05;;;;;;;4.20;3.00;;;;;;;16.14;100.00;99342.84;109562;1250;66398;-72
2023/09/11 04:48:32;;;;;;;5.10;3.90;;;;;;;16.42;100.00;99343.31;109622;1252;71180;-71
2023/09/11 04:50:59;;;;;;;4.90;3.20;;;;;;;16.68;100.00;99340.88;109480;1250;59862;-75
2023/09/11 04:53:25;;;;;;;4.80;4.00;;;;;;;16.92;100.00;99340.59;109638;1250;60376;-76
2023/09/11 04:55:52;;;;;;;7.10;3.20;;;;;;;17.20;100.00;99335.89;109548;1250;75526;-74
2023/09/11 04:58:19;;;;;;;5.00;3.70;;;;;;;17.50;100.00;99333.42;109592;1250;66773;-69
2023/09/11 05:00:46;;;;;;;6.00;3.30;;;;;;;17.78;100.00;99336.09;109678;1250;71225;-77
2023/09/11 05:03:12;;;;;;;6.90;3.70;;;;;;;18.05;100.00;99336.95;109662;1250;59875;-73
2023/09/11 05:05:41;;;;;;;7.10;3.50;;;;;;;18.29;100.00;99329.91;109564;1250;60212;-73
2023/09/11 05:08:07;;;;;;;7.30;3.90;;;;;;;18.53;100.00;99327.23;109530;1250;75425;-73
2023/09/11 05:10:36;;;;;;;6.30;3.50;;;;;;;18.73;100.00;99319.05;109552;1250;66399;-73
2023/09/11 05:13:03;;;;;;;6.10;3.60;;;;;;;18.92;100.00;99313.81;109501;1251;71315;-77
2023/09/11 05:15:29;;;;;;;6.40;3.80;;;;;;;19.15;100.00;99309.27;109542;1251;59810;-74
2023/09/11 05:17:56;;;;;;;4.20;3.50;;;;;;;19.36;100.00;99308.27;109472;1250;192025;-69
2023/09/11 05:20:23;;;;;;;4.20;3.50;;;;;;;19.56;100.00;99307.92;109672;1250;73934;-71
2023/09/11 05:22:49;;;;;;;6.10;3.30;;;;;;;19.71;100.00;99310.95;109534;1250;66420;-72
2023/09/11 05:25:16;;;;;;;4.50;3.30;;;;;;;19.84;100.00;99305.27;109650;1250;72441;-72
2023/09/11 05:27:45;;;;;;;5.10;3.70;;;;;;;19.95;100.00;99306.56;109625;1250;59816;-73
2023/09/11 05:30:13;;;;;;;4.00;3.00;;;;;;;20.07;99.48;99306.04;109417;1250;60696;-75
2023/09/11 05:32:39;;;;;;;3.80;3.40;;;;;;;20.25;99.16;99307.27;109537;1250;74553;-75
2023/09/11 05:35:06;;;;;;;4.50;3.60;;;;;;;20.44;98.32;99302.72;109655;1250;66469;-76
2023/09/11 05:37:33;;;;;;;6.80;4.00;;;;;;;20.64;96.91;99301.69;109555;1250;73048;-76
2023/09/11 05:40:00;;;;;;;8.10;3.60;;;;;;;20.86;96.22;99301.54;109642;1250;60206;-74
2023/09/11 05:42:27;;;;;;;4.10;3.50;;;;;;;21.08;93.20;99303.80;109526;1250;59694;-74
2023/09/11 05:44:53;;;;;;;6.80;3.60;;;;;;;21.20;90.27;99303.12;109528;1250;75241;-75
2023/09/11 05:47:21;;;;;;;5.50;3.50;;;;;;;21.34;89.33;99299.59;109469;1250;67640;-75
2023/09/11 05:49:48;;;;;;;6.10;3.80;;;;;;;21.57;88.83;99297.61;109492;1250;72677;-72
2023/09/11 05:52:15;;;;;;;7.50;3.80;;;;;;;21.81;85.80;99305.14;109532;1250;60148;-74
2023/09/11 05:54:41;;;;;;;8.40;3.90;;;;;;;21.91;83.95;99302.46;109452;1250;59813;-75
2023/09/11 05:57:08;;;;;;;5.70;4.20;;;;;;;22.01;82.98;99307.10;109634;1250;75501;-76
2023/09/11 05:59:35;;;;;;;8.10;4.80;;;;;;;22.14;82.00;99305.45;109771;1250;67876;-76
2023/09/11 06:02:01;;;;;;;7.70;4.50;;;;;;;22.29;81.06;99301.05;109638;1250;72694;-76
2023/09/11 06:04:30;;;;;;;6.10;4.60;;;;;;;22.47;80.42;99302.83;109663;1250;59749;-72
2023/09/11 06:06:57;;;;;;;8.90;4.30;;;;;;;22.74;80.86;99300.05;109658;1250;60169;-77
2023/09/11 06:09:23;;;;;;;9.40;4.70;;;;;;;23.01;77.87;99299.09;109652;1250;75473;-77
2023/09/11 06:11:52;;;;;;;10.00;4.50;;;;;;;23.18;77.22;99294.03;109686;1250;59882;-73
2023/09/11 06:14:18;;;;;;;11.50;3.60;;;;;;;23.39;75.22;99293.16;109610;1250;71416;-72
2023/09/11 06:16:45;;;;;;;6.40;3.10;;;;;;;23.53;74.04;99293.67;109630;1250;59789;-76
2023/09/11 06:19:11;;;;;;;9.30;3.50;;;;;;;23.73;72.66;99295.58;109709;1250;59657;-75
2023/09/11 06:21:38;;;;;;;5.30;3.70;;;;;;;23.91;69.88;99297.63;109732;1250;74188;-74
2023/09/11 06:24:06;;;;;;;8.70;3.80;;;;;;;23.96;68.37;99299.17;109665;1250;67688;-73
2023/09/11 06:26:32;;;;;;;7.30;3.30;;;;;;;24.00;68.91;99302.13;109601;1250;71243;-76
2023/09/11 06:28:59;;;;;;;16.70;3.60;;;;;;;24.14;69.41;99304.28;109671;1250;60447;-77
2023/09/11 06:31:25;;;;;;;7.90;3.30;;;;;;;24.29;68.71;99301.59;109673;1251;59731;-73
2023/09/11 06:33:52;;;;;;;6.20;3.20;;;;;;;24.45;67.73;99306.25;109679;1250;75346;-75
2023/09/11 06:36:19;;;;;;;5.10;3.40;;;;;;;24.61;66.61;99305.77;109584;1250;67808;-76
2023/09/11 06:38:45;;;;;;;4.30;3.00;;;;;;;24.78;65.30;99306.25;109670;1250;71776;-74
2023/09/11 06:41:12;;;;;;;9.10;3.20;;;;;;;25.01;64.40;99301.70;109640;1251;60047;-74
2023/09/11 06:43:39;;;;;;;4.40;3.00;;;;;;;25.24;64.30;99303.77;109702;1250;59823;-74
2023/09/11 06:46:05;;;;;;;5.90;3.30;;;;;;;25.47;61.64;99304.27;109744;1250;73988;-73
2023/09/11 06:48:32;;;;;;;7.60;3.30;;;;;;;25.53;61.84;99304.77;109658;1252;67933;-76
2023/09/11 06:50:58;;;;;;;4.10;2.90;;;;;;;25.67;61.19;99303.69;109680;1250;72650;-73
2023/09/11 06:53:25;;;;;;;7.70;3.60;;;;;;;25.83;60.40;99302.20;109674;1250;60234;-75
2023/09/11 06:55:52;;;;;;;7.40;3.40;;;;;;;26.02;59.93;99307.20;109677;1250;60978;-75
2023/09/11 06:58:18;;;;;;;10.10;3.20;;;;;;;26.36;59.21;99310.48;109746;1250;75531;-74
2023/09/11 07:00:45;;;;;;;7.20;3.70;;;;;;;26.72;57.96;99310.55;109735;1250;67900;-77
2023/09/11 07:03:11;;;;;;;6.30;2.90;;;;;;;27.02;57.21;99311.63;109584;1250;72695;-74
2023/09/11 07:05:39;;;;;;;4.80;3.00;;;;;;;27.29;55.01;99312.13;109663;1250;60084;-78
2023/09/11 07:08:05;;;;;;;4.80;2.90;;;;;;;27.47;54.43;99311.54;109644;1250;60193;-76
2023/09/11 07:10:32;;;;;;;4.70;3.40;;;;;;;27.73;53.67;99308.66;109597;1250;75318;-72
2023/09/11 07:13:08;;;;;;;9.10;3.70;;;;;;;27.95;52.15;99306.60;109670;1250;66639;-74
2023/09/11 07:15:34;;;;;;;9.00;3.20;;;;;;;28.10;51.99;99304.02;109680;1250;72630;-73
2023/09/11 07:18:01;;;;;;;4.90;3.50;;;;;;;28.40;51.41;99308.59;109620;1250;59767;-74
2023/09/11 07:20:28;;;;;;;8.90;3.80;;;;;;;28.74;50.48;99303.23;109708;1250;59793;-75
2023/09/11 07:22:55;;;;;;;8.00;3.20;;;;;;;29.01;49.82;99303.81;109717;1249;75257;-76
2023/09/11 07:25:22;;;;;;;4.80;3.50;;;;;;;29.33;49.19;99305.23;109679;1249;67656;-76
2023/09/11 07:27:49;;;;;;;6.20;3.80;;;;;;;29.68;48.40;99305.14;109591;1250;72501;-76
2023/09/11 07:30:16;;;;;;;4.90;3.10;;;;;;;29.95;47.27;99303.77;109694;1250;60029;-74
2023/09/11 07:32:42;;;;;;;6.30;3.20;;;;;;;30.24;46.68;99298.65;109699;1250;60753;-76
2023/09/11 07:35:09;;;;;;;5.60;3.60;;;;;;;30.53;45.31;99304.13;109564;1250;75286;-74
2023/09/11 07:37:37;;;;;;;5.60;3.80;;;;;;;30.55;44.90;99307.98;109649;1250;67873;-74
2023/09/11 07:40:07;;;;;;;9.50;4.20;;;;;;;30.42;44.01;99307.20;109651;1250;72788;-74
2023/09/11 07:42:33;;;;;;;7.80;3.80;;;;;;;30.20;44.10;99307.83;109625;1250;59807;-74
2023/09/11 07:45:00;;;;;;;9.10;4.60;;;;;;;30.12;44.62;99306.27;109642;1250;59788;-71
2023/09/11 07:47:27;;;;;;;9.00;3.80;;;;;;;30.16;44.89;99303.60;109701;1250;75495;-73
2023/09/11 07:49:53;;;;;;;6.70;3.60;;;;;;;30.23;45.28;99303.52;109712;1250;66445;-72
2023/09/11 07:52:20;;;;;;;6.10;4.10;;;;;;;30.38;45.01;99298.77;109649;1250;72584;-75
2023/09/11 07:54:47;;;;;;;7.60;4.40;;;;;;;30.50;44.12;99298.59;109552;1254;60358;-73
2023/09/11 07:57:14;;;;;;;8.10;4.40;;;;;;;30.44;44.46;99295.85;109694;1250;60296;-72
2023/09/11 07:59:40;;;;;;;5.70;4.60;;;;;;;30.51;45.26;99292.20;109775;1250;59681;-74
2023/09/11 08:02:07;;;;;;;7.40;3.90;;;;;;;30.86;45.14;99291.53;109700;1250;67877;-72
2023/09/11 08:04:35;;;;;;;11.40;4.60;;;;;;;31.18;43.87;99291.39;109717;1250;71213;-72
2023/09/11 08:07:02;;;;;;;5.60;4.40;;;;;;;31.13;43.39;99289.09;109635;1250;60120;-74
2023/09/11 08:09:29;;;;;;;7.80;4.40;;;;;;;30.98;43.59;99286.96;109729;1250;59830;-75
2023/09/11 08:11:56;;;;;;;8.40;4.50;;;;;;;30.87;43.78;99287.50;109723;1250;75448;-75
2023/09/11 08:14:22;;;;;;;8.00;4.80;;;;;;;30.79;44.54;99285.64;109698;1250;66937;-73
2023/09/11 08:16:49;;;;;;;7.50;5.10;;;;;;;31.04;44.75;99285.66;109658;1250;71219;-73
2023/09/11 08:19:16;;;;;;;9.00;4.80;;;;;;;31.40;43.83;99282.27;109668;1250;60201;-73
2023/09/11 08:21:43;;;;;;;8.90;4.90;;;;;;;31.70;43.45;99277.79;109744;1250;60901;-73
2023/09/11 08:24:10;;;;;;;10.30;4.70;;;;;;;32.12;43.28;99277.48;109674;1250;76494;-73
2023/09/11 08:26:38;;;;;;;6.10;4.60;;;;;;;32.51;42.11;99275.66;109684;1250;68678;-75
2023/09/11 08:29:06;;;;;;;5.30;4.20;;;;;;;32.82;40.50;99272.33;109569;1250;72454;-74
2023/09/11 08:31:33;;;;;;;7.20;3.90;;;;;;;32.72;39.61;99275.32;109643;1250;59902;-75
2023/09/11 08:34:00;;;;;;;8.50;4.00;;;;;;;32.51;39.71;99279.25;109679;1250;59787;-74
2023/09/11 08:36:27;;;;;;;6.50;3.80;;;;;;;32.49;40.44;99276.81;109682;1250;75738;-75
2023/09/11 08:38:53;;;;;;;9.90;3.60;;;;;;;32.61;40.96;99281.12;109708;1250;67894;-74
2023/09/11 08:41:22;;;;;;;7.90;4.60;;;;;;;32.96;40.59;99271.16;109620;1250;71658;-74
2023/09/11 08:43:50;;;;;;;6.00;4.10;;;;;;;33.32;39.23;99273.41;109684;1250;59725;-74
2023/09/11 08:46:17;;;;;;;5.80;3.80;;;;;;;33.27;38.55;99271.20;109630;1250;60236;-76
2023/09/11 08:48:45;;;;;;;6.50;4.00;;;;;;;33.00;38.68;99264.33;109588;1250;74679;-73
2023/09/11 08:51:17;;;;;;;5.60;3.70;;;;;;;32.86;39.04;99264.48;109670;1250;67129;-73
2023/09/11 08:53:44;;;;;;;10.10;4.50;;;;;;;32.83;39.05;99263.25;109516;1250;72716;-74
2023/09/11 08:56:11;;;;;;;7.70;3.70;;;;;;;32.75;39.69;99262.70;109523;1254;60260;-73
2023/09/11 08:58:38;;;;;;;5.70;3.70;;;;;;;32.92;39.84;99257.61;109742;1250;60141;-74
2023/09/11 09:01:06;;;;;;;7.70;4.40;;;;;;;33.12;39.16;99254.27;109669;1250;75811;-75
2023/09/11 09:03:32;;;;;;;6.60;4.10;;;;;;;33.07;39.39;99250.83;109653;1249;67908;-73
2023/09/11 09:05:59;;;;;;;8.20;3.60;;;;;;;33.21;39.46;99243.94;109682;1250;71559;-71
2023/09/11 09:08:26;;;;;;;8.30;4.30;;;;;;;33.46;38.67;99247.65;109417;1253;60078;-71
2023/09/11 09:10:53;;;;;;;10.00;4.00;;;;;;;33.44;38.75;99244.39;109660;1250;59652;-71
2023/09/11 09:13:20;;;;;;;8.20;4.00;;;;;;;33.57;38.89;99239.68;109706;1250;74436;-74
2023/09/11 09:15:46;;;;;;;5.30;3.60;;;;;;;33.79;37.87;99236.01;109540;1250;67981;-74
2023/09/11 09:18:13;;;;;;;5.80;4.00;;;;;;;33.66;37.87;99235.52;109646;1250;71126;-75
2023/09/11 09:20:40;;;;;;;7.80;4.10;;;;;;;33.53;38.46;99231.30;109652;1250;60472;-74
2023/09/11 09:23:07;;;;;;;6.40;4.50;;;;;;;33.66;38.40;99232.73;109613;1250;59975;-76
2023/09/11 09:25:33;;;;;;;6.70;4.30;;;;;;;33.72;38.44;99228.54;109605;1251;75519;-75
2023/09/11 09:28:00;;;;;;;5.30;4.40;;;;;;;33.84;37.96;99231.70;109688;1250;68490;-74
2023/09/11 09:30:31;;;;;;;6.50;4.10;;;;;;;33.70;37.57;99225.61;109622;1250;72764;-73
2023/09/11 09:32:58;;;;;;;6.70;4.40;;;;;;;33.42;38.62;99224.10;109586;1250;59750;-75
2023/09/11 09:35:31;;;;;;;8.90;5.00;;;;;;;33.36;38.46;99219.18;109728;1250;59674;-76
2023/09/11 09:37:59;;;;;;;6.60;4.50;;;;;;;33.21;38.41;99220.63;109614;1250;74129;-75
2023/09/11 09:40:38;;;;;;;9.50;4.70;;;;;;;32.91;38.25;99218.52;109695;1249;67656;-74
2023/09/11 09:43:06;;;;;;;7.40;4.20;;;;;;;32.72;39.20;99214.79;109668;1250;73145;-76
2023/09/11 09:45:35;;;;;;;7.30;4.10;;;;;;;32.79;38.79;99213.55;109650;1250;59817;-75
2023/09/11 09:48:07;;;;;;;4.70;4.20;;;;;;;32.74;38.85;99211.17;109679;1250;60271;-74
2023/09/11 09:50:52;;;;;;;6.10;4.10;;;;;;;32.69;38.56;99208.99;109688;1250;75813;-74
2023/09/11 09:53:42;;;;;;;7.20;4.10;;;;;;;32.61;39.28;99200.96;109743;1250;66691;-74
2023/09/11 09:56:11;;;;;;;6.80;4.10;;;;;;;32.53;39.09;99205.35;109724;1250;70539;-71
2023/09/11 09:58:43;;;;;;;4.50;3.90;;;;;;;32.42;39.19;99200.20;109680;1250;60378;-72
2023/09/11 10:01:11;;;;;;;4.50;4.00;;;;;;;32.36;38.86;99203.19;109723;1250;61635;-73
2023/09/11 10:04:04;;;;;;;5.30;4.20;;;;;;;31.97;39.41;99197.08;109631;1251;75207;-76
2023/09/11 10:06:31;;;;;;;4.30;3.90;;;;;;;31.43;41.17;99199.83;109579;1250;67922;-72
2023/09/11 10:09:08;;;;;;;8.50;4.50;;;;;;;31.14;41.17;99202.15;109565;1250;72685;-72
2023/09/11 10:11:35;;;;;;;6.30;3.80;;;;;;;30.86;41.76;99195.23;109673;1250;59817;-72
2023/09/11 10:14:03;;;;;;;5.50;4.30;;;;;;;30.76;43.11;99198.14;109682;1250;59643;-72
2023/09/11 10:16:30;;;;;;;5.70;4.20;;;;;;;30.74;43.03;99199.65;109706;1250;74015;-73
2023/09/11 10:18:58;;;;;;;5.70;4.20;;;;;;;30.61;42.88;99197.91;109674;1250;67684;-74
2023/09/11 10:21:25;;;;;;;8.00;4.30;;;;;;;30.48;43.73;99193.91;109619;1250;72078;-75
2023/09/11 10:23:52;;;;;;;5.70;3.80;;;;;;;30.43;45.13;99194.61;109625;1250;60235;-73
2023/09/11 10:26:34;;;;;;;5.20;4.20;;;;;;;30.39;44.84;99191.40;109710;1250;60402;-74
2023/09/11 10:29:03;;;;;;;6.00;4.00;;;;;;;30.23;44.93;99188.31;109584;1255;75360;-74
2023/09/11 10:31:38;;;;;;;9.30;4.20;;;;;;;30.04;45.80;99187.05;109720;1250;67104;-73
2023/09/11 10:34:05;;;;;;;4.30;3.90;;;;;;;29.92;45.97;99180.15;109700;1250;75096;-71
2023/09/11 10:36:35;;;;;;;5.30;4.00;;;;;;;29.88;46.96;99180.05;109523;1250;59908;-71
2023/09/11 10:39:01;;;;;;;8.80;4.00;;;;;;;29.93;46.98;99176.96;109457;1251;59682;-72
2023/09/11 10:41:28;;;;;;;4.10;3.70;;;;;;;29.92;46.43;99178.23;109628;1250;75226;-75
2023/09/11 10:43:55;;;;;;;9.10;3.80;;;;;;;29.82;46.70;99178.98;109614;1250;66676;-72
2023/09/11 10:46:21;;;;;;;5.40;3.90;;;;;;;29.73;46.73;99176.38;109584;1250;71101;-72
2023/09/11 10:48:51;;;;;;;4.10;3.70;;;;;;;29.58;47.18;99175.23;109589;1250;59690;-73
2023/09/11 10:51:18;;;;;;;5.80;4.40;;;;;;;29.41;47.40;99173.54;109538;1256;59831;-71
2023/09/11 10:53:48;;;;;;;7.30;4.10;;;;;;;29.32;48.52;99167.23;109678;1250;75224;-72
2023/09/11 10:56:15;;;;;;;4.50;3.80;;;;;;;29.40;49.03;99163.15;109511;1250;68156;-73
2023/09/11 10:58:42;;;;;;;5.00;4.40;;;;;;;29.43;47.90;99165.84;109650;1250;72680;-73
2023/09/11 11:01:12;;;;;;;4.70;3.90;;;;;;;29.17;47.51;99166.27;109486;1253;60138;-72
2023/09/11 11:03:39;;;;;;;6.20;3.90;;;;;;;28.84;47.46;99161.80;109554;1250;60439;-75
2023/09/11 11:06:09;;;;;;;4.50;3.90;;;;;;;28.58;48.33;99161.12;109432;1251;74716;-73
2023/09/11 11:08:36;;;;;;;6.10;4.10;;;;;;;28.44;48.92;99165.08;109683;1250;68194;-74
2023/09/11 11:11:03;;;;;;;5.20;4.20;;;;;;;28.29;49.23;99165.23;109535;1253;71904;-74
2023/09/11 11:13:30;;;;;;;4.00;3.70;;;;;;;28.12;49.56;99165.10;109670;1250;59763;-74
2023/09/11 11:16:15;;;;;;;5.80;3.70;;;;;;;27.94;49.49;99159.98;109677;1250;60338;-73
2023/09/11 11:18:42;;;;;;;5.50;3.70;;;;;;;27.71;50.15;99151.28;109694;1250;75338;-74
2023/09/11 11:21:09;;;;;;;4.70;3.60;;;;;;;27.57;50.90;99153.06;109655;1249;66859;-74
2023/09/11 11:23:55;;;;;;;4.80;4.30;;;;;;;27.61;51.38;99150.46;109667;1250;71115;-72
2023/09/11 11:26:24;;;;;;;4.50;3.90;;;;;;;27.75;52.28;99148.94;109602;1250;59723;-73